Time;durP1;ratioP1;P1;durP2;ratioP2;P2;SDS_P1;SDS_P2;PMS_P1;PMS_P2;Temp;Humidity;BMP_temperature;BMP_pressure;BME280_temperature;BME280_humidity;BME280_pressure;Samples;Min_cycle;Max_cycle;Signal;HPM_P1;HPM_P2
2023/02/25 00:02:09;;;;;;;22.48;10.00;;;10.90;95.20;;;;;;5048389;28;20035;-76
2023/02/25 00:04:35;;;;;;;20.00;10.63;;;10.90;95.40;;;;;;5048481;28;20375;-76
2023/02/25 00:07:02;;;;;;;16.80;9.13;;;10.80;95.00;;;;;;5051612;28;20092;-75
2023/02/25 00:09:29;;;;;;;16.90;9.02;;;10.80;95.00;;;;;;5051550;28;20032;-76
2023/02/25 00:11:54;;;;;;;23.25;9.57;;;10.80;95.30;;;;;;5051474;28;20637;-76
2023/02/25 00:14:21;;;;;;;17.70;8.25;;;10.80;95.60;;;;;;5051476;28;20092;-76
2023/02/25 00:16:49;;;;;;;18.33;6.72;;;10.80;95.70;;;;;;5051519;28;20044;-76
2023/02/25 00:19:15;;;;;;;13.13;7.35;;;10.70;95.30;;;;;;5051000;28;20021;-76
2023/02/25 00:21:41;;;;;;;13.10;6.95;;;10.70;95.30;;;;;;5033230;28;20028;-76
2023/02/25 00:24:07;;;;;;;12.65;7.07;;;10.70;95.20;;;;;;5051050;28;20036;-75
2023/02/25 00:26:32;;;;;;;13.65;8.48;;;10.70;94.60;;;;;;5051621;28;20037;-76
2023/02/25 00:28:58;;;;;;;14.95;7.13;;;10.60;94.30;;;;;;5030534;28;20074;-75
2023/02/25 00:31:24;;;;;;;10.68;6.85;;;10.60;94.70;;;;;;5048219;28;20032;-75
2023/02/25 00:33:51;;;;;;;15.15;7.70;;;10.60;95.10;;;;;;5047451;28;20028;-76
2023/02/25 00:36:20;;;;;;;15.10;7.72;;;10.50;94.80;;;;;;5048319;28;20379;-75
2023/02/25 00:38:47;;;;;;;10.50;6.68;;;10.50;94.70;;;;;;5051240;28;20025;-76
2023/02/25 00:41:14;;;;;;;10.45;6.88;;;10.50;94.60;;;;;;5051027;28;20013;-75
2023/02/25 00:43:47;;;;;;;22.10;8.43;;;10.40;94.50;;;;;;5048835;28;20144;-75
2023/02/25 00:46:13;;;;;;;12.43;7.75;;;10.40;94.30;;;;;;5051226;28;20391;-76
2023/02/25 00:48:39;;;;;;;13.77;7.13;;;10.30;94.20;;;;;;5048376;28;20013;-75
2023/02/25 00:51:07;;;;;;;22.33;8.82;;;10.30;94.00;;;;;;5051028;28;20025;-75
2023/02/25 00:53:33;;;;;;;17.42;8.30;;;10.20;93.60;;;;;;5050971;28;20049;-76
2023/02/25 00:56:04;;;;;;;16.63;8.90;;;10.20;93.50;;;;;;5045436;28;20052;-75
2023/02/25 00:58:30;;;;;;;16.25;8.38;;;10.10;93.90;;;;;;5032825;28;20266;-76
2023/02/25 01:00:56;;;;;;;13.32;7.45;;;10.10;94.10;;;;;;5052942;28;20505;-75
2023/02/25 01:03:22;;;;;;;14.55;7.05;;;10.10;93.80;;;;;;5054595;28;20398;-75
2023/02/25 01:05:48;;;;;;;19.90;6.82;;;10.00;94.00;;;;;;5036664;28;20343;-76
2023/02/25 01:08:18;;;;;;;11.95;6.55;;;10.00;93.70;;;;;;5036662;28;20031;-76
2023/02/25 01:10:46;;;;;;;7.50;4.65;;;9.90;93.90;;;;;;5054452;28;20048;-76
2023/02/25 01:13:13;;;;;;;6.20;3.33;;;9.90;94.50;;;;;;5054552;28;20224;-77
2023/02/25 01:15:39;;;;;;;10.32;4.18;;;9.80;94.20;;;;;;5051530;28;20031;-79
2023/02/25 01:18:05;;;;;;;6.90;3.50;;;9.60;94.00;;;;;;5054290;28;20021;-78
2023/02/25 01:20:31;;;;;;;10.95;4.35;;;9.60;94.10;;;;;;5054170;28;20421;-79
2023/02/25 01:22:57;;;;;;;4.43;2.92;;;9.50;94.20;;;;;;5036075;28;20078;-79
2023/02/25 01:25:24;;;;;;;6.32;3.40;;;9.50;94.00;;;;;;5054280;28;20351;-81
2023/02/25 01:27:54;;;;;;;10.80;3.22;;;9.40;93.80;;;;;;5054388;28;20335;-79
2023/02/25 01:30:20;;;;;;;10.48;2.42;;;9.30;93.40;;;;;;5051946;28;20470;-82
2023/02/25 01:32:46;;;;;;;5.60;2.33;;;9.30;92.70;;;;;;5036038;28;20086;-82
2023/02/25 01:35:12;;;;;;;4.47;2.28;;;9.10;92.40;;;;;;5054487;28;20495;-81
2023/02/25 01:37:38;;;;;;;2.85;2.05;;;9.10;92.30;;;;;;5036531;28;20025;-80
2023/02/25 01:40:04;;;;;;;4.47;2.72;;;9.00;92.80;;;;;;5054321;28;20087;-81
2023/02/25 01:42:30;;;;;;;3.25;2.17;;;9.00;93.10;;;;;;5054400;28;20074;-80
2023/02/25 01:45:16;;;;;;;3.80;2.40;;;9.00;93.50;;;;;;5054595;28;20378;-80
2023/02/25 01:47:55;;;;;;;4.28;2.63;;;9.00;94.00;;;;;;5035606;28;20127;-82
2023/02/25 01:50:25;;;;;;;5.53;2.85;;;9.00;93.30;;;;;;5036752;28;20055;-82
2023/02/25 01:52:52;;;;;;;6.80;2.53;;;8.90;93.10;;;;;;5036539;28;20036;-82
2023/02/25 01:55:18;;;;;;;5.10;3.13;;;9.00;93.70;;;;;;5054452;28;20090;-82
2023/02/25 01:57:45;;;;;;;6.95;3.42;;;9.00;94.20;;;;;;5036427;28;20475;-83
2023/02/25 02:00:11;;;;;;;7.10;3.80;;;9.00;94.50;;;;;;5036527;28;20067;-83
2023/02/25 02:02:37;;;;;;;5.80;3.28;;;9.10;94.70;;;;;;5035993;28;20055;-82
2023/02/25 02:05:05;;;;;;;8.23;3.70;;;9.10;94.60;;;;;;5033264;28;20021;-80
2023/02/25 02:07:31;;;;;;;5.50;3.45;;;9.10;94.30;;;;;;5054106;28;20091;-81
2023/02/25 02:09:58;;;;;;;4.50;2.88;;;9.10;94.10;;;;;;5056124;28;20104;-81
2023/02/25 02:12:32;;;;;;;5.97;3.20;;;9.10;94.10;;;;;;5037526;28;20029;-81
2023/02/25 02:15:01;;;;;;;4.95;2.70;;;9.00;94.00;;;;;;5056333;28;20069;-81
2023/02/25 02:17:33;;;;;;;3.58;2.20;;;9.00;93.50;;;;;;5037208;28;20075;-82
2023/02/25 02:20:21;;;;;;;2.47;1.80;;;9.00;93.50;;;;;;5048713;28;20013;-78
2023/02/25 02:22:56;;;;;;;3.88;2.30;;;8.90;93.20;;;;;;5052289;28;20025;-80
2023/02/25 02:25:59;;;;;;;3.30;2.13;;;8.90;93.10;;;;;;5053513;28;20123;-80
2023/02/25 02:28:52;;;;;;;4.63;2.22;;;8.80;93.30;;;;;;5033689;28;20029;-82
2023/02/25 02:32:01;;;;;;;4.60;2.40;;;8.70;92.80;;;;;;5049948;28;20114;-83
2023/02/25 02:34:44;;;;;;;3.05;1.85;;;8.70;92.90;;;;;;5043410;28;20134;-82
2023/02/25 02:37:50;;;;;;;4.23;2.17;;;8.60;92.30;;;;;;5049875;28;20013;-80
2023/02/25 02:40:37;;;;;;;4.07;2.00;;;8.60;92.60;;;;;;5050150;28;20031;-80
2023/02/25 02:43:09;;;;;;;4.65;2.35;;;8.60;92.50;;;;;;5051563;28;20025;-82
2023/02/25 02:45:47;;;;;;;2.60;1.80;;;8.60;92.60;;;;;;5053481;28;20051;-79
2023/02/25 02:48:24;;;;;;;4.47;2.47;;;8.50;92.40;;;;;;5035258;28;20045;-79
2023/02/25 02:51:20;;;;;;;2.65;2.00;;;8.50;92.50;;;;;;5033913;28;20025;-81
2023/02/25 02:53:56;;;;;;;3.05;2.05;;;8.50;92.80;;;;;;5033382;28;20069;-80
2023/02/25 02:56:25;;;;;;;6.80;2.97;;;8.40;91.90;;;;;;5051607;28;20017;-81
2023/02/25 02:59:20;;;;;;;3.35;1.75;;;8.40;91.90;;;;;;5052935;28;20012;-79
2023/02/25 03:01:51;;;;;;;2.20;1.60;;;8.40;92.20;;;;;;5038627;28;20064;-77
2023/02/25 03:04:22;;;;;;;3.00;2.00;;;8.40;91.90;;;;;;5052542;28;20426;-80
2023/02/25 03:06:52;;;;;;;4.57;2.00;;;8.40;91.70;;;;;;5034960;28;20061;-77
2023/02/25 03:09:45;;;;;;;3.72;1.80;;;8.30;91.50;;;;;;5034145;28;20434;-77
2023/02/25 03:12:11;;;;;;;2.35;1.85;;;8.30;91.40;;;;;;5046879;28;20044;-79
2023/02/25 03:14:37;;;;;;;2.38;1.50;;;8.30;91.60;;;;;;5052223;28;20346;-78
2023/02/25 03:17:05;;;;;;;1.92;1.50;;;8.30;91.50;;;;;;5052176;28;20020;-78
2023/02/25 03:19:41;;;;;;;3.25;1.75;;;8.30;91.30;;;;;;5034344;28;20421;-77
2023/02/25 03:22:19;;;;;;;3.55;1.70;;;8.20;91.00;;;;;;5050039;28;20092;-78
2023/02/25 03:24:52;;;;;;;2.67;1.40;;;8.20;91.10;;;;;;5043169;28;20044;-78
2023/02/25 03:27:27;;;;;;;1.90;1.10;;;8.20;91.00;;;;;;5030711;28;20100;-78
2023/02/25 03:30:04;;;;;;;2.25;1.20;;;8.20;90.90;;;;;;5031950;28;20024;-78
2023/02/25 03:32:32;;;;;;;2.45;1.27;;;8.20;90.70;;;;;;5029687;28;20033;-77
2023/02/25 03:35:00;;;;;;;2.08;1.40;;;8.20;90.90;;;;;;5031720;28;20371;-78
2023/02/25 03:37:34;;;;;;;1.38;1.00;;;8.20;90.90;;;;;;5031758;28;20057;-78
2023/02/25 03:40:06;;;;;;;;;;;8.20;90.60;;;;;;5032353;28;20021;-77
2023/02/25 03:42:34;;;;;;;4.35;1.00;;;8.30;91.10;;;;;;5031863;28;19909;-77
2023/02/25 03:45:04;;;;;;;1.48;0.95;;;8.20;90.00;;;;;;5031590;28;20478;-77
2023/02/25 03:47:33;;;;;;;2.28;1.30;;;8.20;89.20;;;;;;5031628;28;20080;-77
2023/02/25 03:50:11;;;;;;;1.15;0.95;;;8.20;89.90;;;;;;5031640;28;20517;-77
2023/02/25 03:52:39;;;;;;;1.73;1.30;;;8.10;88.80;;;;;;5030045;28;20025;-76
2023/02/25 03:55:08;;;;;;;1.33;1.05;;;8.10;87.50;;;;;;5031638;28;20060;-77
2023/02/25 03:57:40;;;;;;;5.22;0.90;;;8.10;87.70;;;;;;5030211;28;20113;-77
2023/02/25 04:00:17;;;;;;;1.38;1.10;;;8.10;87.10;;;;;;5029380;28;20500;-77
2023/02/25 04:02:45;;;;;;;0.82;0.80;;;8.10;87.60;;;;;;5026969;28;20357;-77
2023/02/25 04:05:11;;;;;;;0.80;0.80;;;8.00;86.90;;;;;;5031435;28;20036;-76
2023/02/25 04:07:38;;;;;;;1.45;0.93;;;8.00;86.70;;;;;;5031173;28;20025;-76
2023/02/25 04:10:06;;;;;;;1.05;0.77;;;8.00;86.60;;;;;;5030014;28;20383;-76
2023/02/25 04:12:32;;;;;;;1.10;0.80;;;8.10;86.10;;;;;;5031142;28;20116;-76
2023/02/25 04:14:58;;;;;;;1.00;0.90;;;8.00;85.20;;;;;;5031141;28;20105;-77
2023/02/25 04:17:23;;;;;;;1.75;0.88;;;8.00;85.60;;;;;;5031177;28;20049;-75
2023/02/25 04:19:49;;;;;;;0.88;0.80;;;8.00;85.30;;;;;;5030903;28;20018;-74
2023/02/25 04:22:15;;;;;;;1.52;0.80;;;8.10;85.60;;;;;;5028441;28;20096;-75
2023/02/25 04:24:41;;;;;;;0.75;0.70;;;8.10;85.30;;;;;;5037237;28;20071;-75
2023/02/25 04:27:06;;;;;;;0.70;0.70;;;8.10;85.20;;;;;;5051051;28;20046;-75
2023/02/25 04:29:32;;;;;;;0.60;0.60;;;8.10;84.60;;;;;;5033323;28;20550;-75
2023/02/25 04:31:58;;;;;;;0.90;0.70;;;8.10;84.70;;;;;;5048090;28;20020;-74
2023/02/25 04:34:24;;;;;;;2.63;0.85;;;8.10;82.70;;;;;;5048252;28;20052;-75
2023/02/25 04:36:50;;;;;;;0.60;0.60;;;8.10;82.70;;;;;;5037424;28;20458;-74
2023/02/25 04:39:17;;;;;;;1.10;1.00;;;8.10;82.80;;;;;;5055179;28;20029;-75
2023/02/25 04:41:44;;;;;;;1.20;0.90;;;8.10;82.20;;;;;;5055332;28;20477;-74
2023/02/25 04:44:10;;;;;;;1.20;0.68;;;8.10;81.30;;;;;;5055133;28;20025;-75
2023/02/25 04:46:39;;;;;;;1.10;0.90;;;8.10;81.20;;;;;;5055279;28;20021;-74
2023/02/25 04:49:05;;;;;;;0.63;0.63;;;8.10;81.30;;;;;;5055218;28;20013;-74
2023/02/25 04:51:31;;;;;;;0.70;0.70;;;8.10;81.10;;;;;;5055008;28;20075;-74
2023/02/25 04:53:57;;;;;;;0.85;0.50;;;8.10;80.40;;;;;;5054998;28;20013;-74
2023/02/25 04:56:23;;;;;;;3.10;0.80;;;8.20;80.20;;;;;;5052056;28;20032;-74
2023/02/25 04:58:49;;;;;;;0.82;0.70;;;8.10;79.70;;;;;;5054901;28;20427;-74
2023/02/25 05:01:14;;;;;;;0.63;0.60;;;8.10;79.60;;;;;;5054724;28;20086;-75
2023/02/25 05:03:41;;;;;;;0.70;0.70;;;8.20;79.50;;;;;;5052188;28;20075;-74
2023/02/25 05:06:08;;;;;;;1.98;0.80;;;8.20;79.40;;;;;;5054927;28;20048;-74
2023/02/25 05:08:35;;;;;;;0.73;0.73;;;8.20;78.90;;;;;;5054853;28;20417;-74
2023/02/25 05:11:02;;;;;;;8.70;0.80;;;8.10;78.90;;;;;;5052100;28;20092;-74
2023/02/25 05:13:28;;;;;;;1.05;0.70;;;8.10;78.10;;;;;;5054638;28;20028;-75
2023/02/25 05:16:09;;;;;;;0.80;0.80;;;8.00;77.80;;;;;;5054602;28;20013;-75
2023/02/25 05:18:39;;;;;;;0.80;0.80;;;7.90;77.60;;;;;;5054114;28;20071;-75
2023/02/25 05:21:13;;;;;;;3.22;0.80;;;7.90;77.80;;;;;;5052804;28;20013;-76
2023/02/25 05:23:43;;;;;;;0.60;0.60;;;7.90;77.60;;;;;;5054722;28;20077;-75
2023/02/25 05:26:09;;;;;;;1.05;0.95;;;7.80;77.70;;;;;;5035555;28;20128;-75
2023/02/25 05:28:36;;;;;;;0.80;0.80;;;7.80;77.80;;;;;;5031580;28;20041;-75
2023/02/25 05:31:11;;;;;;;0.70;0.65;;;7.80;77.80;;;;;;5034570;28;20017;-75
2023/02/25 05:33:37;;;;;;;0.80;0.80;;;7.70;77.40;;;;;;5032910;28;20095;-75
2023/02/25 05:36:08;;;;;;;1.23;0.70;;;7.70;77.40;;;;;;5034370;28;20024;-75
2023/02/25 05:38:35;;;;;;;2.90;1.00;;;7.60;77.20;;;;;;5034403;28;20018;-74
2023/02/25 05:41:02;;;;;;;1.30;0.73;;;7.60;76.90;;;;;;5031941;28;20096;-75
2023/02/25 05:43:28;;;;;;;2.63;0.82;;;7.50;76.50;;;;;;5034033;28;20479;-74
2023/02/25 05:45:56;;;;;;;1.08;0.85;;;7.50;76.30;;;;;;5034223;28;20060;-75
2023/02/25 05:48:22;;;;;;;0.80;0.80;;;7.50;76.50;;;;;;5031894;28;20057;-74
2023/02/25 05:50:49;;;;;;;0.70;0.70;;;7.40;76.50;;;;;;5029884;28;20040;-74
2023/02/25 05:53:18;;;;;;;0.80;0.80;;;7.50;76.80;;;;;;5034221;28;20123;-74
2023/02/25 05:55:44;;;;;;;0.85;0.75;;;7.50;77.00;;;;;;5033957;28;20021;-75
2023/02/25 05:58:11;;;;;;;0.88;0.60;;;7.50;77.40;;;;;;5033865;28;20017;-75
2023/02/25 06:00:37;;;;;;;2.53;0.80;;;7.50;77.10;;;;;;5033832;28;20025;-74
2023/02/25 06:03:04;;;;;;;0.60;0.60;;;7.40;76.80;;;;;;5032509;28;20478;-74
2023/02/25 06:05:30;;;;;;;1.40;0.80;;;7.40;76.70;;;;;;5033624;28;20060;-74
2023/02/25 06:07:57;;;;;;;0.75;0.70;;;7.40;76.50;;;;;;5032443;28;20463;-74
2023/02/25 06:10:24;;;;;;;1.52;0.90;;;7.40;76.40;;;;;;5033655;28;20025;-73
2023/02/25 06:12:50;;;;;;;0.68;0.65;;;7.40;76.30;;;;;;5033499;28;20028;-74
2023/02/25 06:15:16;;;;;;;1.17;1.00;;;7.50;76.50;;;;;;5033586;28;20025;-73
2023/02/25 06:17:42;;;;;;;1.13;0.52;;;7.50;76.50;;;;;;5033533;28;20028;-74
2023/02/25 06:20:08;;;;;;;1.13;0.80;;;7.60;76.60;;;;;;5033533;28;20089;-73
2023/02/25 06:22:34;;;;;;;0.75;0.73;;;7.60;76.40;;;;;;5030160;28;20033;-73
2023/02/25 06:25:01;;;;;;;0.90;0.90;;;7.60;75.90;;;;;;5026240;28;20510;-73
2023/02/25 06:27:28;;;;;;;4.57;1.00;;;7.50;75.60;;;;;;5034163;28;20072;-73
2023/02/25 06:29:54;;;;;;;2.10;1.45;;;7.60;76.00;;;;;;5034495;28;20409;-74
2023/02/25 06:32:20;;;;;;;1.60;1.42;;;7.60;76.20;;;;;;5033659;28;20037;-74
2023/02/25 06:34:46;;;;;;;1.52;1.42;;;7.70;76.30;;;;;;5034318;28;20017;-74
2023/02/25 06:37:12;;;;;;;5.47;1.90;;;7.70;76.10;;;;;;5033906;28;20028;-74
2023/02/25 06:39:41;;;;;;;1.92;1.48;;;7.80;76.30;;;;;;5033280;28;20019;-74
2023/02/25 06:42:08;;;;;;;2.30;1.77;;;7.80;76.80;;;;;;5031904;28;20017;-73
2023/02/25 06:44:34;;;;;;;3.15;2.17;;;7.80;75.70;;;;;;5033385;28;20352;-74
2023/02/25 06:47:00;;;;;;;2.53;1.90;;;7.80;75.50;;;;;;5031970;28;20029;-74
2023/02/25 06:49:26;;;;;;;7.97;2.30;;;7.80;75.10;;;;;;5033230;28;20022;-74
2023/02/25 06:51:51;;;;;;;3.55;2.05;;;7.80;74.60;;;;;;5031809;28;20018;-74
2023/02/25 06:54:18;;;;;;;6.13;2.45;;;7.90;74.70;;;;;;5033099;28;20060;-73
2023/02/25 06:56:44;;;;;;;3.30;2.10;;;7.90;74.60;;;;;;5031312;28;20467;-74
2023/02/25 06:59:10;;;;;;;5.10;2.08;;;7.90;74.50;;;;;;5031564;28;20017;-75
2023/02/25 07:01:36;;;;;;;3.67;2.25;;;7.90;74.70;;;;;;5033337;28;20141;-74
2023/02/25 07:04:03;;;;;;;2.83;2.20;;;8.00;74.50;;;;;;5033396;28;20024;-74
2023/02/25 07:06:29;;;;;;;4.38;2.35;;;8.00;74.30;;;;;;5032167;28;20026;-75
2023/02/25 07:08:56;;;;;;;7.00;2.13;;;8.10;74.00;;;;;;5033155;28;20061;-74
2023/02/25 07:11:24;;;;;;;4.50;1.98;;;8.10;74.00;;;;;;5029587;28;20231;-75
2023/02/25 07:13:50;;;;;;;5.28;2.15;;;8.20;74.10;;;;;;5033327;28;20021;-74
2023/02/25 07:16:17;;;;;;;3.35;2.05;;;8.20;73.60;;;;;;5033230;28;20028;-74
2023/02/25 07:18:43;;;;;;;3.30;1.95;;;8.20;73.10;;;;;;5033205;28;20025;-74
2023/02/25 07:21:11;;;;;;;3.42;2.05;;;8.20;72.70;;;;;;5032990;28;20022;-75
2023/02/25 07:23:37;;;;;;;6.25;3.10;;;8.20;72.40;;;;;;5032933;28;20775;-75
2023/02/25 07:26:04;;;;;;;3.67;1.90;;;8.20;71.90;;;;;;5050464;28;20075;-75
2023/02/25 07:28:31;;;;;;;5.22;2.63;;;8.30;72.00;;;;;;5052759;28;20031;-74
2023/02/25 07:31:00;;;;;;;5.55;2.08;;;8.30;71.80;;;;;;5052752;28;20029;-75
2023/02/25 07:33:27;;;;;;;5.10;2.22;;;8.30;71.50;;;;;;5052593;28;20017;-73
2023/02/25 07:35:54;;;;;;;5.22;2.40;;;8.20;71.10;;;;;;5052639;28;20013;-74
2023/02/25 07:38:20;;;;;;;4.28;2.40;;;8.30;71.10;;;;;;5052187;28;20032;-75
2023/02/25 07:40:45;;;;;;;7.00;3.10;;;8.20;70.80;;;;;;5034635;28;20047;-75
2023/02/25 07:43:11;;;;;;;6.95;2.42;;;8.20;70.60;;;;;;5052482;28;20576;-75
2023/02/25 07:45:37;;;;;;;5.40;2.53;;;8.10;70.00;;;;;;5052187;28;20063;-74
2023/02/25 07:48:03;;;;;;;4.75;2.45;;;8.10;69.80;;;;;;5052351;28;20021;-75
2023/02/25 07:50:29;;;;;;;6.72;2.88;;;8.20;69.80;;;;;;5052374;28;20044;-75
2023/02/25 07:52:54;;;;;;;6.82;2.67;;;8.20;69.70;;;;;;5052249;28;20500;-75
2023/02/25 07:55:20;;;;;;;7.20;2.80;;;8.20;69.60;;;;;;5052237;28;20013;-74
2023/02/25 07:57:46;;;;;;;4.38;2.40;;;8.20;69.50;;;;;;5052311;28;20025;-74
2023/02/25 08:00:12;;;;;;;6.22;2.40;;;8.20;69.70;;;;;;5052420;28;20021;-75
2023/02/25 08:02:38;;;;;;;4.38;2.30;;;8.20;69.20;;;;;;5052104;28;20028;-75
2023/02/25 08:05:05;;;;;;;7.18;2.47;;;8.30;69.00;;;;;;5052269;28;20350;-75
2023/02/25 08:07:31;;;;;;;5.85;2.58;;;8.20;68.70;;;;;;5051647;28;20052;-75
2023/02/25 08:09:57;;;;;;;9.88;2.63;;;8.30;68.80;;;;;;5051331;28;20114;-74
2023/02/25 08:12:23;;;;;;;6.68;3.25;;;8.30;68.70;;;;;;5051947;28;20025;-75
2023/02/25 08:14:48;;;;;;;6.50;2.60;;;8.30;69.00;;;;;;5051987;28;20017;-74
2023/02/25 08:17:14;;;;;;;4.38;2.58;;;8.30;69.00;;;;;;5034082;28;20028;-74
2023/02/25 08:19:40;;;;;;;8.10;3.20;;;8.40;68.80;;;;;;5052228;28;20351;-74
2023/02/25 08:22:10;;;;;;;4.25;2.30;;;8.40;68.70;;;;;;5051702;28;20024;-74
2023/02/25 08:24:40;;;;;;;8.48;4.00;;;8.40;68.70;;;;;;5048276;28;20037;-75
2023/02/25 08:27:09;;;;;;;5.65;3.22;;;8.50;68.90;;;;;;5051807;28;20018;-75
2023/02/25 08:29:35;;;;;;;7.85;2.65;;;8.60;68.90;;;;;;5034174;28;20110;-75
2023/02/25 08:32:02;;;;;;;7.03;3.13;;;8.60;67.20;;;;;;5051859;28;20025;-74
2023/02/25 08:34:27;;;;;;;9.00;2.90;;;8.60;67.10;;;;;;5051653;28;20039;-74
2023/02/25 08:36:53;;;;;;;4.97;2.35;;;8.70;67.20;;;;;;5051810;28;20021;-75
2023/02/25 08:39:19;;;;;;;6.25;2.58;;;8.80;67.30;;;;;;5051075;28;20021;-75
2023/02/25 08:41:45;;;;;;;7.40;2.72;;;8.90;67.50;;;;;;5033608;28;20025;-74
2023/02/25 08:44:11;;;;;;;6.55;2.83;;;9.00;67.80;;;;;;5051554;28;20428;-75
2023/02/25 08:46:37;;;;;;;5.20;2.22;;;9.20;67.70;;;;;;5051445;28;20021;-74
2023/02/25 08:49:04;;;;;;;3.38;2.05;;;9.30;67.30;;;;;;5034146;28;20390;-75
2023/02/25 08:51:33;;;;;;;4.90;2.10;;;9.40;66.50;;;;;;5051599;28;20051;-75
2023/02/25 08:54:05;;;;;;;4.38;2.20;;;9.60;66.10;;;;;;5033648;28;20025;-75
2023/02/25 08:56:32;;;;;;;6.38;2.45;;;9.70;64.60;;;;;;5051582;28;20044;-74
2023/02/25 08:58:58;;;;;;;5.65;2.47;;;9.70;63.70;;;;;;5051436;28;20045;-75
2023/02/25 09:01:24;;;;;;;5.25;2.15;;;9.80;63.50;;;;;;5051271;28;20508;-75
2023/02/25 09:03:53;;;;;;;6.85;2.17;;;9.90;63.00;;;;;;5051427;28;20021;-74
2023/02/25 09:06:27;;;;;;;9.07;2.40;;;9.90;62.30;;;;;;5051464;28;20099;-75
2023/02/25 09:08:56;;;;;;;;;;;10.00;61.10;;;;;;5045555;28;20021;-75
2023/02/25 09:11:24;;;;;;;5.03;2.20;;;10.10;63.70;;;;;;5032423;28;20316;-75
2023/02/25 09:13:51;;;;;;;4.43;2.42;;;10.10;60.80;;;;;;5051232;28;20051;-75
2023/02/25 09:16:18;;;;;;;6.10;2.92;;;10.10;59.80;;;;;;5051257;28;20524;-74
2023/02/25 09:18:46;;;;;;;4.50;2.20;;;10.10;60.40;;;;;;5051129;28;20017;-75
2023/02/25 09:21:13;;;;;;;12.95;2.60;;;10.20;59.50;;;;;;5043410;28;20078;-75
2023/02/25 09:23:39;;;;;;;6.03;2.75;;;10.20;58.60;;;;;;5054896;28;20041;-75
2023/02/25 09:26:06;;;;;;;5.15;2.72;;;10.20;58.70;;;;;;5028060;28;20049;-75
2023/02/25 09:28:32;;;;;;;3.92;2.30;;;10.10;57.40;;;;;;5024860;28;20042;-76
2023/02/25 09:30:58;;;;;;;9.38;2.80;;;10.10;58.20;;;;;;5024154;28;20089;-75
2023/02/25 09:33:25;;;;;;;6.57;2.40;;;10.10;58.30;;;;;;5023486;28;20030;-75
2023/02/25 09:35:51;;;;;;;3.22;2.00;;;10.20;58.70;;;;;;5025299;28;20018;-75
2023/02/25 09:38:17;;;;;;;6.55;2.17;;;10.20;58.70;;;;;;5025570;28;20025;-74
2023/02/25 09:40:48;;;;;;;4.38;2.13;;;10.20;58.10;;;;;;5024622;28;20025;-75
2023/02/25 09:43:21;;;;;;;5.60;2.45;;;10.20;58.10;;;;;;5025091;28;20021;-75
2023/02/25 09:45:49;;;;;;;5.38;2.63;;;10.30;58.30;;;;;;5021185;28;20022;-76
2023/02/25 09:48:25;;;;;;;4.55;2.15;;;10.30;58.20;;;;;;5026578;28;20044;-75
2023/02/25 09:50:56;;;;;;;6.20;2.38;;;10.30;58.10;;;;;;5024161;28;20108;-75
2023/02/25 09:53:32;;;;;;;4.20;2.75;;;10.40;58.20;;;;;;5024415;28;20033;-75
2023/02/25 09:55:58;;;;;;;6.80;1.90;;;10.40;57.80;;;;;;5025021;28;20384;-74
2023/02/25 09:58:35;;;;;;;6.97;2.85;;;10.40;58.10;;;;;;5026534;28;20097;-76
2023/02/25 10:01:17;;;;;;;6.07;2.25;;;10.50;57.70;;;;;;5023801;28;20030;-74
2023/02/25 10:04:24;;;;;;;3.63;2.20;;;10.50;57.30;;;;;;5023540;28;20018;-75
2023/02/25 10:06:51;;;;;;;3.88;2.28;;;10.50;57.50;;;;;;5004958;28;20034;-75
2023/02/25 10:09:38;;;;;;;4.75;1.90;;;10.60;57.30;;;;;;5023873;28;20033;-75
2023/02/25 10:12:37;;;;;;;6.95;2.58;;;10.70;56.80;;;;;;5025212;28;20021;-76
2023/02/25 10:15:20;;;;;;;7.95;2.38;;;10.70;56.90;;;;;;5022562;28;20084;-76
2023/02/25 10:17:58;;;;;;;3.60;2.28;;;10.70;56.40;;;;;;5021951;28;20022;-76
2023/02/25 10:20:48;;;;;;;4.93;2.35;;;10.70;56.40;;;;;;5023630;28;20048;-74
2023/02/25 10:23:50;;;;;;;3.28;2.03;;;10.70;56.20;;;;;;5018639;28;20193;-75
2023/02/25 10:26:23;;;;;;;10.15;2.80;;;10.70;55.90;;;;;;5051694;28;20049;-75
2023/02/25 10:29:01;;;;;;;3.60;2.15;;;10.70;56.10;;;;;;5052044;28;20028;-75
2023/02/25 10:31:29;;;;;;;5.50;2.58;;;10.70;55.60;;;;;;5051085;28;20025;-75
2023/02/25 10:33:58;;;;;;;5.18;2.38;;;10.80;55.60;;;;;;5053515;28;20051;-75
2023/02/25 10:36:30;;;;;;;5.28;2.08;;;10.80;55.00;;;;;;5037414;28;20025;-75
2023/02/25 10:38:56;;;;;;;4.63;2.35;;;10.80;54.90;;;;;;5036593;28;20155;-75
2023/02/25 10:41:26;;;;;;;6.95;3.13;;;10.80;54.90;;;;;;5055180;28;20108;-75
2023/02/25 10:43:54;;;;;;;4.45;2.30;;;10.70;54.60;;;;;;5054933;28;20427;-75
2023/02/25 10:47:00;;;;;;;4.63;2.13;;;10.70;54.60;;;;;;5037058;28;20025;-75
2023/02/25 10:49:28;;;;;;;8.80;2.38;;;10.60;55.20;;;;;;4974319;28;20039;-75
2023/02/25 10:52:03;;;;;;;8.45;2.60;;;10.60;55.00;;;;;;4974322;28;20082;-75
2023/02/25 10:54:34;;;;;;;5.82;2.40;;;10.50;54.70;;;;;;4974094;28;20030;-75
2023/02/25 10:57:14;;;;;;;3.70;2.05;;;10.50;55.20;;;;;;4974105;28;20507;-74
2023/02/25 10:59:42;;;;;;;8.32;2.05;;;10.40;55.70;;;;;;4957746;28;20033;-74
2023/02/25 11:02:29;;;;;;;7.68;2.28;;;10.50;56.50;;;;;;4973880;28;20496;-75
2023/02/25 11:04:55;;;;;;;4.13;2.10;;;10.50;56.30;;;;;;4966737;28;20035;-74
2023/02/25 11:07:41;;;;;;;11.88;2.92;;;10.60;56.50;;;;;;4968323;28;20027;-75
2023/02/25 11:10:16;;;;;;;5.97;2.13;;;10.60;56.50;;;;;;4966632;28;20420;-76
2023/02/25 11:12:46;;;;;;;5.47;2.17;;;10.60;55.40;;;;;;4973504;28;20134;-76
2023/02/25 11:15:29;;;;;;;4.35;1.85;;;10.60;54.00;;;;;;4973413;28;20113;-75
2023/02/25 11:18:03;;;;;;;3.05;1.58;;;10.60;53.60;;;;;;4973229;28;20041;-75
2023/02/25 11:20:31;;;;;;;6.53;2.08;;;10.60;54.50;;;;;;4973386;28;20428;-76
2023/02/25 11:22:58;;;;;;;6.70;1.75;;;10.60;54.60;;;;;;4984130;28;20040;-75
2023/02/25 11:25:37;;;;;;;4.90;1.80;;;10.50;53.90;;;;;;5053649;28;20045;-75
2023/02/25 11:28:04;;;;;;;3.65;1.42;;;10.40;53.60;;;;;;5038073;28;20028;-76
2023/02/25 11:30:34;;;;;;;11.68;2.10;;;10.40;54.40;;;;;;5053790;28;20112;-75
2023/02/25 11:33:04;;;;;;;2.85;1.42;;;10.40;53.80;;;;;;5053514;28;20025;-75
2023/02/25 11:35:36;;;;;;;6.88;1.73;;;10.40;54.60;;;;;;5053790;28;20021;-75
2023/02/25 11:38:38;;;;;;;4.22;1.42;;;10.50;54.20;;;;;;5038872;28;20028;-76
2023/02/25 11:41:20;;;;;;;4.82;1.55;;;10.50;53.80;;;;;;5037344;28;20033;-76
2023/02/25 11:43:46;;;;;;;5.38;1.45;;;10.50;53.80;;;;;;5053244;28;20497;-76
2023/02/25 11:46:22;;;;;;;6.10;1.60;;;10.60;54.00;;;;;;5053447;28;20021;-76
2023/02/25 11:49:34;;;;;;;5.70;1.80;;;10.60;53.10;;;;;;5053314;28;20025;-75
2023/02/25 11:52:33;;;;;;;8.45;1.65;;;10.60;53.40;;;;;;5010028;28;20033;-76
2023/02/25 11:55:17;;;;;;;7.70;2.10;;;10.70;53.50;;;;;;5035817;28;20112;-75
2023/02/25 11:58:14;;;;;;;5.30;2.28;;;10.70;52.70;;;;;;5051937;28;20021;-74
2023/02/25 12:00:58;;;;;;;3.83;1.50;;;10.70;52.90;;;;;;5041747;28;20171;-75
2023/02/25 12:03:45;;;;;;;2.80;1.45;;;10.70;53.40;;;;;;5053220;28;20078;-75
2023/02/25 12:06:11;;;;;;;17.40;5.25;;;10.70;53.90;;;;;;5033446;28;20025;-75
2023/02/25 12:08:45;;;;;;;4.03;1.90;;;10.70;53.50;;;;;;5046088;28;20029;-76
2023/02/25 12:11:33;;;;;;;6.70;1.77;;;10.60;52.50;;;;;;5053592;28;20029;-75
2023/02/25 12:14:49;;;;;;;7.10;2.00;;;10.60;53.30;;;;;;5053341;28;20112;-76
2023/02/25 12:17:21;;;;;;;3.58;1.77;;;10.60;52.30;;;;;;4972584;28;20407;-76
2023/02/25 12:20:24;;;;;;;3.03;1.60;;;10.60;53.60;;;;;;5042111;28;20486;-76
2023/02/25 12:23:31;;;;;;;4.80;1.90;;;10.70;53.20;;;;;;5053396;28;20039;-76
2023/02/25 12:26:34;;;;;;;3.90;1.52;;;10.60;52.00;;;;;;5053097;28;20049;-76
2023/02/25 12:29:50;;;;;;;4.70;1.30;;;10.70;52.80;;;;;;5035546;28;20455;-75
2023/02/25 12:32:24;;;;;;;10.75;1.63;;;10.60;52.60;;;;;;4972955;28;20035;-75
2023/02/25 12:34:59;;;;;;;2.70;1.23;;;10.60;52.20;;;;;;4972552;28;20453;-74
2023/02/25 12:37:33;;;;;;;2.88;1.60;;;10.70;52.20;;;;;;4972489;28;20023;-75
2023/02/25 12:40:27;;;;;;;5.65;1.10;;;10.60;51.40;;;;;;4972619;28;20059;-75
2023/02/25 12:43:17;;;;;;;10.77;1.43;;;10.60;51.40;;;;;;4953172;29;20067;-75
2023/02/25 12:46:03;;;;;;;3.13;1.40;;;10.70;51.50;;;;;;4953178;29;20035;-76
2023/02/25 12:49:09;;;;;;;2.25;1.40;;;10.60;51.70;;;;;;4953162;28;20036;-74
2023/02/25 12:52:06;;;;;;;3.40;1.35;;;10.70;52.50;;;;;;4927726;29;20042;-77
2023/02/25 12:54:40;;;;;;;5.07;1.73;;;10.60;52.90;;;;;;4953217;29;20039;-75
2023/02/25 12:57:34;;;;;;;8.35;2.00;;;10.60;53.60;;;;;;4955975;28;20027;-75
2023/02/25 13:00:31;;;;;;;7.65;2.13;;;10.50;54.70;;;;;;4956541;29;20443;-75
2023/02/25 13:03:22;;;;;;;5.75;2.00;;;10.40;55.10;;;;;;4952500;29;20110;-75
2023/02/25 13:06:06;;;;;;;5.28;2.08;;;10.30;55.20;;;;;;4956445;29;20401;-75
2023/02/25 13:08:38;;;;;;;;;;;10.20;55.60;;;;;;5041101;28;20203;-75
2023/02/25 13:11:37;;;;;;;6.05;2.13;;;10.20;56.30;;;;;;5055061;28;20077;-76
2023/02/25 13:14:16;;;;;;;5.32;2.30;;;10.20;56.30;;;;;;5055558;28;20092;-75
2023/02/25 13:17:03;;;;;;;6.72;2.42;;;10.20;56.40;;;;;;5070247;28;20036;-75
2023/02/25 13:19:50;;;;;;;4.03;1.42;;;10.30;56.40;;;;;;5036848;28;20018;-75